Terminal Aerodrome Forecast
Issued by NWS

Home | Current Version | Previous Version | Text Only | Print | Product List | Glossary On
Versions: 1 2 3 4 5 6 7 8 9 10 11 12 13 14 15 16 17 18 19 20 21 22 23 24 25 26 27 28 29 30 31 32 33 34
004
FTUS43 KSGF 272321
TAFJLN
TAF
KJLN 272321Z 2800/2824 08005KT P6SM VCSH OVC090
     FM280300 11007KT P6SM -SHRA OVC070
     FM280600 11006KT 6SM -RA OVC070 WS020/17035KT
     FM281000 13009KT P6SM VCSH OVC070 WS020/17035KT
     FM281500 19011G19KT P6SM OVC015=

USA.gov is the U.S. government's official web portal to all federal, state and local government web resources and services.